Time;durP1;ratioP1;P1;durP2;ratioP2;P2;SDS_P1;SDS_P2;PMS_P1;PMS_P2;Temp;Humidity;BMP_temperature;BMP_pressure;BME280_temperature;BME280_humidity;BME280_pressure;Samples;Min_cycle;Max_cycle;Signal;HPM_P1;HPM_P2
2022/02/18 00:01:09;;;;;;;;;9.00;6.00;;;;;12.75;63.34;101185.53;5054494;28;45326;-74
2022/02/18 00:03:37;;;;;;;;;8.25;6.00;;;;;12.74;63.63;101172.41;5053945;28;46989;-74
2022/02/18 00:06:05;;;;;;;;;14.00;8.50;;;;;12.71;63.51;101173.38;5054247;28;45541;-74
2022/02/18 00:08:30;;;;;;;;;13.25;9.75;;;;;12.68;63.37;101172.66;5054020;28;45992;-74
2022/02/18 00:10:56;;;;;;;;;10.50;6.00;;;;;12.65;63.98;101163.13;5054745;28;45313;-74
2022/02/18 00:13:21;;;;;;;;;5.50;5.50;;;;;12.63;63.78;101154.41;5053916;28;47371;-74
2022/02/18 00:15:46;;;;;;;;;12.50;6.25;;;;;12.62;64.11;101151.84;5054092;28;45375;-74
2022/02/18 00:18:12;;;;;;;;;14.50;6.00;;;;;12.60;64.31;101141.38;5054257;28;45367;-74
2022/02/18 00:20:37;;;;;;;;;7.00;5.25;;;;;12.58;64.24;101142.34;5054586;28;45347;-74
2022/02/18 00:23:04;;;;;;;;;8.00;5.50;;;;;12.55;64.58;101122.28;5040647;28;46095;-74
2022/02/18 00:25:30;;;;;;;;;9.50;8.00;;;;;12.50;64.50;101132.16;5053838;28;45824;-74
2022/02/18 00:27:56;;;;;;;;;8.50;4.75;;;;;12.46;65.31;101127.94;5053002;28;45527;-75
2022/02/18 00:30:21;;;;;;;;;7.25;6.50;;;;;12.43;65.06;101118.41;5044908;28;51892;-74
2022/02/18 00:32:46;;;;;;;;;9.00;4.25;;;;;12.41;65.68;101112.31;5054311;28;45434;-74
2022/02/18 00:35:12;;;;;;;;;11.00;7.50;;;;;12.39;65.69;101118.59;5054290;28;46070;-74
2022/02/18 00:37:37;;;;;;;;;7.75;5.25;;;;;12.37;66.04;101112.53;5053725;28;45265;-74
2022/02/18 00:40:04;;;;;;;;;9.00;3.25;;;;;12.36;66.51;101110.81;5053791;28;45443;-74
2022/02/18 00:42:29;;;;;;;;;5.25;4.50;;;;;12.32;66.47;101106.59;5053774;28;46348;-74
2022/02/18 00:44:55;;;;;;;;;7.00;4.75;;;;;12.33;66.73;101097.81;5053662;28;45530;-74
2022/02/18 00:47:20;;;;;;;;;8.00;4.00;;;;;12.33;66.72;101096.03;5039779;28;45407;-74
2022/02/18 00:49:46;;;;;;;;;7.75;7.75;;;;;12.35;66.79;101099.44;5054511;28;45432;-74
2022/02/18 00:52:12;;;;;;;;;9.50;4.25;;;;;12.36;67.39;101087.09;5053059;28;45412;-74
2022/02/18 00:54:37;;;;;;;;;4.75;4.00;;;;;12.36;67.34;101066.03;5053618;28;45549;-74
2022/02/18 00:57:03;;;;;;;;;5.50;3.50;;;;;12.38;67.19;101061.56;5054054;28;45402;-74
2022/02/18 00:59:28;;;;;;;;;6.00;3.25;;;;;12.38;67.33;101064.19;5053289;28;45473;-75
2022/02/18 01:01:53;;;;;;;;;5.75;5.75;;;;;12.38;67.56;101064.19;5053982;28;47033;-74
2022/02/18 01:04:19;;;;;;;;;10.25;5.00;;;;;12.39;67.81;101058.00;5053397;28;45438;-75
2022/02/18 01:06:44;;;;;;;;;12.00;6.00;;;;;12.39;67.61;101050.09;5053409;28;45470;-74
2022/02/18 01:09:10;;;;;;;;;11.75;5.25;;;;;12.37;68.14;101044.88;5053588;28;45376;-75
2022/02/18 01:11:36;;;;;;;;;14.50;5.75;;;;;12.38;68.02;101046.59;5053639;28;45306;-75
2022/02/18 01:14:02;;;;;;;;;9.75;6.25;;;;;12.37;68.38;101047.53;5054544;28;45220;-74
2022/02/18 01:16:28;;;;;;;;;9.25;5.75;;;;;12.36;68.41;101040.50;5056779;28;47524;-74
2022/02/18 01:18:53;;;;;;;;;5.75;4.50;;;;;12.38;68.58;101036.06;5056779;28;45232;-74
2022/02/18 01:21:22;;;;;;;;;12.00;4.00;;;;;12.40;69.20;101018.38;5056842;28;46120;-75
2022/02/18 01:23:47;;;;;;;;;9.00;5.25;;;;;12.40;69.28;101017.53;5040913;28;45955;-74
2022/02/18 01:26:13;;;;;;;;;7.50;4.25;;;;;12.41;69.27;101013.97;5057553;28;45408;-74
2022/02/18 01:28:38;;;;;;;;;10.00;5.00;;;;;12.41;69.79;100999.00;5056182;28;45390;-74
2022/02/18 01:31:04;;;;;;;;;8.50;4.75;;;;;12.42;69.85;100986.66;5055561;28;46263;-75
2022/02/18 01:33:29;;;;;;;;;12.00;5.25;;;;;12.43;69.67;100994.53;5056519;28;45514;-74
2022/02/18 01:35:54;;;;;;;;;13.25;5.75;;;;;12.43;70.18;100983.13;5056311;28;45548;-74
2022/02/18 01:38:20;;;;;;;;;5.00;2.25;;;;;12.43;70.71;100969.94;5056767;28;45358;-74
2022/02/18 01:40:45;;;;;;;;;6.00;4.25;;;;;12.42;71.28;100957.66;5056852;28;46123;-74
2022/02/18 01:43:11;;;;;;;;;9.75;5.00;;;;;12.42;73.36;100955.88;5056557;28;45303;-74
2022/02/18 01:45:36;;;;;;;;;9.50;7.00;;;;;12.42;72.45;100949.75;5056374;28;45570;-74
2022/02/18 01:48:02;;;;;;;;;9.50;4.00;;;;;12.41;73.20;100934.88;5056576;28;45610;-74
2022/02/18 01:50:27;;;;;;;;;7.50;4.50;;;;;12.36;76.10;100929.81;5056272;28;46051;-74
2022/02/18 01:52:54;;;;;;;;;5.50;5.00;;;;;12.34;75.77;100933.47;5056768;28;45499;-75
2022/02/18 01:55:22;;;;;;;;;14.75;7.50;;;;;12.28;76.20;100930.19;5056240;28;45384;-74
2022/02/18 01:57:50;;;;;;;;;7.50;4.00;;;;;12.25;76.59;100926.84;5039832;28;45454;-74
2022/02/18 02:00:18;;;;;;;;;8.00;5.00;;;;;12.23;78.91;100926.06;5056047;28;46346;-74
2022/02/18 02:02:44;;;;;;;;;10.00;5.25;;;;;12.21;77.81;100909.47;5055992;28;45245;-75
2022/02/18 02:05:10;;;;;;;;;9.00;6.50;;;;;12.21;79.39;100904.19;5056571;28;45386;-75
2022/02/18 02:07:38;;;;;;;;;10.25;6.00;;;;;12.16;78.89;100901.81;5055907;28;45305;-74
2022/02/18 02:10:04;;;;;;;;;6.00;4.25;;;;;12.13;80.43;100890.53;5055709;28;45972;-74
2022/02/18 02:12:30;;;;;;;;;7.50;4.25;;;;;12.08;81.41;100887.28;5055568;28;45379;-74
2022/02/18 02:14:55;;;;;;;;;7.00;5.25;;;;;12.05;83.10;100876.88;5055994;28;45332;-74
2022/02/18 02:17:21;;;;;;;;;6.00;4.50;;;;;12.04;81.91;100875.16;5056472;28;45329;-74
2022/02/18 02:19:46;;;;;;;;;6.50;4.50;;;;;12.01;83.04;100882.28;5055298;28;45374;-74
2022/02/18 02:22:15;;;;;;;;;7.75;7.75;;;;;12.02;82.52;100876.09;5055686;28;45407;-74
2022/02/18 02:24:40;;;;;;;;;5.00;4.00;;;;;12.01;82.36;100870.91;5055490;28;45393;-74
2022/02/18 02:27:06;;;;;;;;;3.75;3.75;;;;;12.01;81.87;100852.47;5056120;28;45471;-74
2022/02/18 02:29:31;;;;;;;;;6.75;4.00;;;;;12.02;87.41;100841.00;5054864;28;46745;-74
2022/02/18 02:31:57;;;;;;;;;4.50;4.25;;;;;12.01;85.49;100842.78;5042251;28;45689;-74
2022/02/18 02:34:23;;;;;;;;;5.50;2.00;;;;;12.02;84.31;100839.22;5055667;28;45417;-74
2022/02/18 02:36:48;;;;;;;;;4.25;4.00;;;;;12.02;84.14;100833.94;5055563;28;45378;-73
2022/02/18 02:39:13;;;;;;;;;6.00;4.00;;;;;12.09;84.57;100831.88;5055558;28;46310;-74
2022/02/18 02:41:39;;;;;;;;;9.50;4.00;;;;;12.12;84.24;100833.53;5055877;28;45308;-74
2022/02/18 02:44:04;;;;;;;;;4.00;2.50;;;;;12.14;84.94;100824.59;5056365;28;45423;-74
2022/02/18 02:46:30;;;;;;;;;5.50;3.00;;;;;12.15;84.48;100817.53;5055406;28;45527;-73
2022/02/18 02:48:55;;;;;;;;;3.50;3.50;;;;;12.14;85.52;100811.44;5054833;28;45433;-74
2022/02/18 02:51:21;;;;;;;;;4.75;3.50;;;;;12.09;86.07;100800.25;5038247;28;45459;-73
2022/02/18 02:53:46;;;;;;;;;3.75;3.75;;;;;12.12;87.54;100797.50;5039480;28;45214;-74
2022/02/18 02:56:12;;;;;;;;;4.75;4.75;;;;;12.12;88.32;100794.00;5056317;28;45315;-73
2022/02/18 02:58:37;;;;;;;;;4.25;3.00;;;;;12.14;87.30;100781.59;5054943;28;45411;-74
2022/02/18 03:01:06;;;;;;;;;4.75;3.00;;;;;12.14;87.95;100765.78;5055070;28;45379;-73
2022/02/18 03:03:32;;;;;;;;;5.75;4.00;;;;;12.16;88.90;100766.56;5036983;28;45620;-74
2022/02/18 03:05:57;;;;;;;;;7.75;6.00;;;;;12.18;89.70;100764.72;5054880;28;45408;-73
2022/02/18 03:08:22;;;;;;;;;8.00;4.75;;;;;12.20;88.95;100757.56;5055070;28;45303;-74
2022/02/18 03:11:14;;;;;;;;;4.50;4.00;;;;;12.21;97.35;100759.28;5055282;28;45514;-74
2022/02/18 03:13:33;;;;;;;;;5.75;3.50;;;;;12.25;90.42;100745.88;5054766;28;45568;-73
2022/02/18 03:15:58;;;;;;;;;6.25;4.75;;;;;12.30;89.18;100742.16;5055144;28;45427;-73
2022/02/18 03:18:24;;;;;;;;;4.50;4.50;;;;;12.32;89.44;100742.94;5054879;28;45507;-73
2022/02/18 03:20:49;;;;;;;;;3.75;3.75;;;;;12.30;88.86;100723.72;5054841;28;46330;-73
2022/02/18 03:23:15;;;;;;;;;8.75;5.50;;;;;12.37;88.99;100719.84;5051345;28;45366;-73
2022/02/18 03:25:40;;;;;;;;;4.75;3.75;;;;;12.41;88.65;100724.88;5041609;28;45652;-74
2022/02/18 03:28:05;;;;;;;;;8.00;4.00;;;;;12.47;88.20;100734.25;5055117;28;45282;-73
2022/02/18 03:30:31;;;;;;;;;3.25;3.00;;;;;12.51;88.07;100727.91;5054007;28;52521;-74
2022/02/18 03:32:56;;;;;;;;;3.25;3.25;;;;;12.58;88.24;100725.81;5054868;28;45823;-74
2022/02/18 03:35:21;;;;;;;;;3.00;3.00;;;;;12.64;88.46;100721.09;5054674;28;45358;-74
2022/02/18 03:37:47;;;;;;;;;3.00;3.00;;;;;12.67;88.31;100720.06;5053736;28;45375;-74
2022/02/18 03:40:12;;;;;;;;;2.75;1.75;;;;;12.72;88.54;100710.13;5054622;28;45300;-74
2022/02/18 03:42:38;;;;;;;;;2.50;1.00;;;;;12.77;88.38;100690.50;5055163;28;45595;-74
2022/02/18 03:45:03;;;;;;;;;1.25;1.25;;;;;12.83;87.97;100704.28;5053988;28;51124;-74
2022/02/18 03:47:29;;;;;;;;;1.00;1.00;;;;;12.89;88.88;100706.59;5054694;28;45388;-74
2022/02/18 03:49:54;;;;;;;;;1.00;0.00;;;;;12.91;89.56;100702.13;5055137;28;52213;-74
2022/02/18 03:52:19;;;;;;;;;2.00;1.00;;;;;12.89;89.71;100702.16;5054283;28;45473;-74
2022/02/18 03:54:45;;;;;;;;;0.00;0.00;;;;;12.86;89.78;100698.88;5054509;28;45588;-74
2022/02/18 03:57:10;;;;;;;;;0.00;0.00;;;;;12.85;90.78;100691.91;5054674;28;46421;-73
2022/02/18 03:59:35;;;;;;;;;0.00;0.00;;;;;12.80;94.58;100692.13;5054189;28;45805;-74
2022/02/18 04:02:01;;;;;;;;;0.00;0.00;;;;;12.78;95.86;100686.06;5054280;28;45415;-74
2022/02/18 04:04:26;;;;;;;;;1.00;1.00;;;;;12.77;96.09;100689.66;5054605;28;45510;-74
2022/02/18 04:06:51;;;;;;;;;0.00;0.00;;;;;12.78;96.30;100693.97;5053734;28;47659;-74
2022/02/18 04:09:17;;;;;;;;;0.00;0.00;;;;;12.80;93.91;100674.53;5053803;28;45528;-74
2022/02/18 04:11:42;;;;;;;;;0.00;0.00;;;;;12.82;90.87;100673.59;5053830;28;45692;-74
2022/02/18 04:14:07;;;;;;;;;0.00;0.00;;;;;12.86;89.93;100675.97;5054659;28;45300;-74
2022/02/18 04:16:33;;;;;;;;;0.00;0.00;;;;;12.90;89.37;100666.13;5054158;28;45375;-74
2022/02/18 04:18:58;;;;;;;;;1.00;1.00;;;;;12.93;89.07;100658.03;5054242;28;45426;-74
2022/02/18 04:21:23;;;;;;;;;0.00;0.00;;;;;12.97;88.39;100654.28;5054356;28;45383;-74
2022/02/18 04:23:48;;;;;;;;;0.00;0.00;;;;;12.98;88.19;100645.44;5054406;28;45494;-74
2022/02/18 04:26:14;;;;;;;;;0.00;0.00;;;;;13.01;87.72;100645.28;5054481;28;54251;-74
2022/02/18 04:28:40;;;;;;;;;0.00;0.00;;;;;13.02;87.61;100653.13;5053962;28;45337;-74
2022/02/18 04:31:05;;;;;;;;;0.00;0.00;;;;;13.05;87.74;100641.56;5053425;28;45504;-74
2022/02/18 04:33:30;;;;;;;;;0.00;0.00;;;;;13.07;87.03;100642.31;5053701;28;45304;-74
2022/02/18 04:35:56;;;;;;;;;0.00;0.00;;;;;13.07;86.85;100632.59;5053924;28;46911;-73
2022/02/18 04:38:21;;;;;;;;;0.00;0.00;;;;;13.09;87.09;100629.03;5054256;28;45259;-74
2022/02/18 04:40:46;;;;;;;;;0.50;0.00;;;;;13.07;86.76;100629.97;5054058;28;45368;-74
2022/02/18 04:43:12;;;;;;;;;1.00;0.00;;;;;13.06;86.31;100630.06;5053884;28;45425;-75
2022/02/18 04:45:38;;;;;;;;;1.00;1.00;;;;;13.07;86.61;100637.88;5053665;28;46209;-74
2022/02/18 04:48:03;;;;;;;;;0.00;0.00;;;;;13.09;86.50;100621.09;5054165;28;45330;-75
2022/02/18 04:50:29;;;;;;;;;2.00;0.00;;;;;13.10;86.07;100615.75;5057629;28;45349;-74
2022/02/18 04:52:54;;;;;;;;;0.75;0.75;;;;;13.11;85.82;100609.56;5058347;28;45467;-74
2022/02/18 04:55:19;;;;;;;;;3.50;1.00;;;;;13.10;85.55;100607.81;5057065;28;47331;-74
2022/02/18 04:57:47;;;;;;;;;3.50;1.75;;;;;13.13;85.59;100605.03;5056637;28;45238;-74
2022/02/18 05:00:12;;;;;;;;;2.50;1.00;;;;;13.12;85.49;100605.97;5057066;28;45712;-74
2022/02/18 05:02:38;;;;;;;;;2.00;2.00;;;;;13.13;85.40;100597.13;5056782;28;45503;-74
2022/02/18 05:05:04;;;;;;;;;4.50;4.00;;;;;13.15;85.33;100594.38;5057063;28;53013;-75
2022/02/18 05:07:29;;;;;;;;;15.00;10.00;;;;;13.16;85.50;100583.75;5056546;28;45335;-74
2022/02/18 05:09:54;;;;;;;;;9.00;5.25;;;;;13.16;85.28;100581.13;5057588;28;45749;-74
2022/02/18 05:12:20;;;;;;;;;6.00;5.00;;;;;13.15;85.57;100584.69;5056609;28;45536;-74
2022/02/18 05:14:45;;;;;;;;;8.50;5.00;;;;;13.18;84.96;100578.41;5057007;28;46282;-74
2022/02/18 05:17:10;;;;;;;;;6.50;2.00;;;;;13.18;84.86;100567.84;5057611;28;45300;-74
2022/02/18 05:19:36;;;;;;;;;4.50;3.00;;;;;13.17;85.22;100563.50;5056873;28;45576;-74
2022/02/18 05:22:01;;;;;;;;;1.00;1.00;;;;;13.16;85.07;100548.63;5056741;28;45290;-74
2022/02/18 05:24:26;;;;;;;;;3.00;1.00;;;;;13.16;85.30;100556.53;5056641;28;46054;-74
2022/02/18 05:26:52;;;;;;;;;3.25;2.00;;;;;13.15;85.54;100555.66;5056318;28;45288;-74
2022/02/18 05:29:17;;;;;;;;;2.25;1.25;;;;;13.13;85.15;100549.63;5057833;28;45469;-74
2022/02/18 05:31:42;;;;;;;;;1.50;1.50;;;;;13.13;84.96;100549.63;5047339;28;45652;-74
2022/02/18 05:34:08;;;;;;;;;2.00;1.00;;;;;13.12;85.29;100547.94;5052440;28;45537;-74
2022/02/18 05:36:33;;;;;;;;;1.50;1.00;;;;;13.12;85.23;100547.94;5056352;28;45541;-75
2022/02/18 05:38:58;;;;;;;;;2.00;1.00;;;;;13.13;84.97;100533.78;5056713;28;45604;-74
2022/02/18 05:41:24;;;;;;;;;1.00;1.00;;;;;13.13;85.14;100541.72;5056731;28;45375;-75
2022/02/18 05:43:49;;;;;;;;;0.00;0.00;;;;;13.13;84.35;100535.59;5056926;28;45334;-75
2022/02/18 05:46:15;;;;;;;;;2.00;1.00;;;;;13.13;85.15;100530.31;5056260;28;45388;-75
2022/02/18 05:48:41;;;;;;;;;0.25;0.25;;;;;13.12;84.86;100518.06;5056758;28;45643;-75
2022/02/18 05:51:06;;;;;;;;;1.00;1.00;;;;;13.12;84.88;100516.25;5056149;28;45404;-75
2022/02/18 05:53:32;;;;;;;;;1.25;0.00;;;;;13.13;84.95;100503.91;5056601;28;46533;-75
2022/02/18 05:55:58;;;;;;;;;0.50;0.00;;;;;13.14;85.07;100498.53;5056537;28;45479;-75
2022/02/18 05:58:23;;;;;;;;;0.00;0.00;;;;;13.15;84.87;100489.69;5056307;28;45727;-74
2022/02/18 06:00:49;;;;;;;;;1.50;0.00;;;;;13.14;84.83;100488.00;5054836;28;45447;-75
2022/02/18 06:03:14;;;;;;;;;0.00;0.00;;;;;13.14;84.56;100476.59;5055619;28;47269;-74
2022/02/18 06:05:40;;;;;;;;;0.00;0.00;;;;;13.12;85.12;100481.13;5056105;28;45427;-74
2022/02/18 06:08:06;;;;;;;;;0.50;0.00;;;;;13.10;85.54;100481.19;5056760;28;45478;-74
2022/02/18 06:10:31;;;;;;;;;0.00;0.00;;;;;13.09;85.21;100471.56;5055745;28;45412;-74
2022/02/18 06:12:57;;;;;;;;;1.00;0.00;;;;;13.08;85.19;100469.88;5056156;28;46197;-74
2022/02/18 06:15:22;;;;;;;;;1.75;0.00;;;;;13.06;85.56;100467.34;5055775;28;47887;-74
2022/02/18 06:17:47;;;;;;;;;0.00;0.00;;;;;13.07;85.11;100465.56;5056212;28;45300;-75
2022/02/18 06:20:13;;;;;;;;;0.00;0.00;;;;;13.06;85.12;100445.38;5056716;28;45178;-74
2022/02/18 06:22:38;;;;;;;;;1.50;0.00;;;;;13.05;85.15;100438.41;5055837;28;45995;-75
2022/02/18 06:25:06;;;;;;;;;0.00;0.00;;;;;13.06;85.38;100445.38;5055499;28;45414;-75
2022/02/18 06:27:31;;;;;;;;;0.00;0.00;;;;;13.06;85.12;100445.38;5055743;28;45322;-74
2022/02/18 06:29:57;;;;;;;;;0.00;0.00;;;;;13.06;85.08;100432.19;5055910;28;45575;-74
2022/02/18 06:32:22;;;;;;;;;0.25;0.00;;;;;13.06;85.24;100427.78;5055087;28;46946;-74
2022/02/18 06:34:47;;;;;;;;;1.00;1.00;;;;;13.06;85.06;100442.75;5056183;28;45531;-74
2022/02/18 06:37:13;;;;;;;;;0.00;0.00;;;;;13.06;84.64;100425.13;5055550;28;45393;-73
2022/02/18 06:39:38;;;;;;;;;0.75;0.50;;;;;13.07;84.68;100432.09;5055291;28;45283;-74
2022/02/18 06:42:04;;;;;;;;;2.00;0.75;;;;;13.09;84.96;100437.28;5055484;28;45355;-75
2022/02/18 06:44:29;;;;;;;;;1.00;1.00;;;;;13.09;84.78;100421.44;5055973;28;45308;-75
2022/02/18 06:46:56;;;;;;;;;0.00;0.00;;;;;13.11;84.62;100421.38;5056083;28;45335;-75
2022/02/18 06:49:21;;;;;;;;;1.00;1.00;;;;;13.10;84.42;100407.31;5055494;28;45306;-75
2022/02/18 06:51:48;;;;;;;;;1.00;1.00;;;;;13.11;84.49;100409.03;5055216;28;45320;-75
2022/02/18 06:54:13;;;;;;;;;0.00;0.00;;;;;13.13;84.12;100414.22;5055075;28;45787;-74
2022/02/18 06:56:38;;;;;;;;;2.00;0.00;;;;;13.15;84.03;100418.44;5055259;28;52368;-74
2022/02/18 06:59:03;;;;;;;;;1.00;0.50;;;;;13.17;83.75;100405.19;5056374;28;45380;-75
2022/02/18 07:01:29;;;;;;;;;1.00;1.00;;;;;13.20;83.76;100405.00;5054414;28;49558;-74
2022/02/18 07:03:55;;;;;;;;;0.50;0.00;;;;;13.22;83.84;100406.66;5054829;28;45380;-75
2022/02/18 07:06:20;;;;;;;;;2.75;1.00;;;;;13.23;83.34;100397.78;5055291;28;45327;-75
2022/02/18 07:08:45;;;;;;;;;0.00;0.00;;;;;13.23;83.28;100394.28;5054887;28;45489;-74
2022/02/18 07:11:11;;;;;;;;;1.50;1.50;;;;;13.23;83.07;100386.38;5055758;28;45477;-75
2022/02/18 07:13:36;;;;;;;;;3.75;1.00;;;;;13.22;83.56;100390.81;5054658;28;51215;-75
2022/02/18 07:16:01;;;;;;;;;0.25;0.25;;;;;13.23;83.04;100379.31;5054839;28;47355;-74
2022/02/18 07:18:27;;;;;;;;;1.75;0.00;;;;;13.25;83.71;100381.84;5055328;28;45403;-75
2022/02/18 07:20:53;;;;;;;;;3.75;1.00;;;;;13.22;85.02;100377.63;5055033;28;45425;-74
2022/02/18 07:23:18;;;;;;;;;1.00;0.25;;;;;13.22;83.25;100372.34;5055556;28;45363;-75
2022/02/18 07:25:45;;;;;;;;;0.00;0.00;;;;;13.25;83.23;100363.38;5054895;28;45596;-74
2022/02/18 07:28:10;;;;;;;;;1.50;0.00;;;;;13.26;82.94;100363.31;5054773;28;46988;-75
2022/02/18 07:30:35;;;;;;;;;1.00;1.00;;;;;13.27;82.81;100362.34;5054169;28;46039;-72
2022/02/18 07:33:01;;;;;;;;;3.25;0.00;;;;;13.28;82.71;100358.78;5053536;28;45479;-75
2022/02/18 07:35:32;;;;;;;;;1.50;0.75;;;;;13.29;82.74;100349.06;5055081;28;45352;-75
2022/02/18 07:37:59;;;;;;;;;1.50;1.50;;;;;13.34;82.37;100352.28;5054637;28;45533;-74
2022/02/18 07:40:26;;;;;;;;;2.00;0.25;;;;;13.34;82.25;100365.47;5054653;28;46375;-74
2022/02/18 07:42:51;;;;;;;;;0.00;0.00;;;;;13.34;82.32;100360.19;5054412;28;45273;-74
2022/02/18 07:45:17;;;;;;;;;1.00;1.00;;;;;13.32;82.09;100349.75;5054185;28;57319;-74
2022/02/18 07:47:42;;;;;;;;;0.25;0.25;;;;;13.32;82.45;100352.38;5054748;28;45267;-74
2022/02/18 07:50:08;;;;;;;;;0.75;0.50;;;;;13.36;82.03;100344.25;5054276;28;59065;-74
2022/02/18 07:52:36;;;;;;;;;1.00;0.75;;;;;13.41;81.88;100347.47;5052900;28;45399;-73
2022/02/18 07:55:02;;;;;;;;;0.75;0.75;;;;;13.44;81.82;100353.41;5053283;28;47621;-73
2022/02/18 07:57:27;;;;;;;;;1.00;0.00;;;;;13.48;81.74;100349.66;5054545;28;45519;-73
2022/02/18 07:59:53;;;;;;;;;1.50;1.50;;;;;13.51;81.41;100352.09;5054144;28;46884;-74
2022/02/18 08:02:18;;;;;;;;;0.00;0.00;;;;;13.52;81.24;100347.66;5054885;28;45562;-74
2022/02/18 08:04:43;;;;;;;;;0.50;0.50;;;;;13.52;81.32;100335.34;5054058;28;45467;-75
2022/02/18 08:07:10;;;;;;;;;0.00;0.00;;;;;13.55;81.24;100347.47;5053696;28;45414;-74
2022/02/18 08:09:35;;;;;;;;;0.25;0.25;;;;;13.57;81.11;100341.19;5054137;28;46192;-73
2022/02/18 08:12:01;;;;;;;;;1.75;1.00;;;;;13.62;80.89;100322.38;5050875;28;45417;-73
2022/02/18 08:14:26;;;;;;;;;0.00;0.00;;;;;13.65;80.76;100326.63;5052175;28;45284;-74
2022/02/18 08:16:52;;;;;;;;;2.00;0.00;;;;;13.65;80.21;100334.56;5050715;28;45217;-74
2022/02/18 08:19:20;;;;;;;;;0.00;0.00;;;;;13.64;80.28;100315.22;5058281;28;45625;-74
2022/02/18 08:21:48;;;;;;;;;1.00;1.00;;;;;13.65;80.48;100324.00;5056292;28;45656;-74
2022/02/18 08:24:19;;;;;;;;;1.00;0.75;;;;;13.66;79.84;100308.06;5056125;28;45469;-74
2022/02/18 08:26:49;;;;;;;;;0.00;0.00;;;;;13.66;80.21;100320.41;5058331;28;45553;-74
2022/02/18 08:29:16;;;;;;;;;0.75;0.75;;;;;13.67;80.23;100315.03;5058235;28;45410;-74
2022/02/18 08:31:42;;;;;;;;;0.00;0.00;;;;;13.73;80.08;100301.47;5057265;28;45695;-74
2022/02/18 08:34:07;;;;;;;;;0.25;0.25;;;;;13.75;79.67;100298.72;5057534;28;45348;-74
2022/02/18 08:36:35;;;;;;;;;0.00;0.00;;;;;13.75;79.71;100307.47;5057553;28;45515;-74
2022/02/18 08:39:04;;;;;;;;;1.50;0.00;;;;;13.75;79.58;100286.34;5057186;28;47257;-75
2022/02/18 08:41:30;;;;;;;;;1.25;0.00;;;;;13.80;79.56;100299.28;5057837;28;49832;-74
2022/02/18 08:43:58;;;;;;;;;0.00;0.00;;;;;13.84;79.37;100291.06;5057648;28;46274;-75
2022/02/18 08:46:27;;;;;;;;;0.00;0.00;;;;;13.94;79.11;100288.69;5057163;28;45612;-75
2022/02/18 08:48:52;;;;;;;;;2.00;2.00;;;;;14.01;79.23;100279.41;5057212;28;46156;-74
2022/02/18 08:51:18;;;;;;;;;2.25;1.00;;;;;14.10;78.84;100278.81;5062379;28;45633;-73
2022/02/18 08:53:43;;;;;;;;;2.00;1.25;;;;;14.23;78.64;100270.94;5068632;28;45420;-74
2022/02/18 08:56:09;;;;;;;;;2.00;0.00;;;;;14.36;78.13;100286.84;5061479;28;45481;-74
2022/02/18 08:58:34;;;;;;;;;0.00;0.00;;;;;14.35;77.70;100291.28;5070438;28;45825;-75
2022/02/18 09:00:59;;;;;;;;;0.00;0.00;;;;;14.34;77.89;100289.56;5062229;28;45361;-76
2022/02/18 09:03:25;;;;;;;;;0.00;0.00;;;;;14.33;78.04;100303.75;5060176;28;45363;-75
2022/02/18 09:05:50;;;;;;;;;1.75;1.00;;;;;14.30;77.97;100290.75;5067230;27;45992;-75
2022/02/18 09:08:16;;;;;;;;;2.00;0.00;;;;;14.32;77.85;100286.19;5053073;28;46149;-76
2022/02/18 09:10:46;;;;;;;;;0.25;0.25;;;;;14.29;77.92;100288.19;5056063;28;45461;-75
2022/02/18 09:13:11;;;;;;;;;1.00;0.00;;;;;14.27;77.77;100283.00;5052910;28;45397;-75
2022/02/18 09:15:37;;;;;;;;;0.25;0.25;;;;;14.22;77.78;100285.09;5052225;28;45448;-75
2022/02/18 09:18:02;;;;;;;;;0.00;0.00;;;;;14.19;77.97;100290.56;5055180;28;46971;-75
2022/02/18 09:20:27;;;;;;;;;1.00;1.00;;;;;14.16;77.97;100282.00;5053681;28;45308;-75
2022/02/18 09:22:53;;;;;;;;;0.00;0.00;;;;;14.13;78.18;100277.75;5054097;28;45385;-75
2022/02/18 09:25:18;;;;;;;;;0.00;0.00;;;;;14.08;78.45;100266.63;5049256;28;45451;-75
2022/02/18 09:27:44;;;;;;;;;0.00;0.00;;;;;14.02;78.71;100265.25;5045336;28;46132;-75
2022/02/18 09:30:10;;;;;;;;;0.00;0.00;;;;;13.98;78.74;100252.34;5070710;28;45415;-74
2022/02/18 09:32:36;;;;;;;;;0.00;0.00;;;;;13.93;79.32;100265.00;5065537;28;45331;-74
2022/02/18 09:35:03;;;;;;;;;0.00;0.00;;;;;13.91;79.29;100258.97;5057514;28;45256;-74
2022/02/18 09:37:29;;;;;;;;;0.00;0.00;;;;;13.88;79.94;100249.44;5061900;28;47206;-74
2022/02/18 09:39:54;;;;;;;;;0.00;0.00;;;;;13.84;80.08;100250.59;5059261;28;45475;-74
2022/02/18 09:42:20;;;;;;;;;0.50;0.50;;;;;13.85;80.08;100241.72;5058152;28;45459;-74
2022/02/18 09:44:47;;;;;;;;;4.25;1.00;;;;;13.85;80.05;100249.66;5058888;28;45577;-74
2022/02/18 09:47:13;;;;;;;;;0.00;0.00;;;;;13.87;80.86;100263.59;5048903;28;45423;-75
2022/02/18 09:49:43;;;;;;;;;43.50;34.25;;;;;13.81;80.57;100243.69;5055944;28;45949;-75
2022/02/18 09:52:11;;;;;;;;;1.00;1.00;;;;;13.77;81.40;100231.63;5055509;28;45336;-76
2022/02/18 09:54:36;;;;;;;;;0.00;0.00;;;;;13.74;81.13;100234.50;5056739;28;45319;-74
2022/02/18 09:57:02;;;;;;;;;0.00;0.00;;;;;13.71;82.30;100234.66;5055944;28;58712;-75
2022/02/18 09:59:28;;;;;;;;;0.50;0.00;;;;;13.72;81.82;100227.59;5057336;28;45363;-74
2022/02/18 10:01:54;;;;;;;;;0.00;0.00;;;;;13.75;83.48;100224.78;5063480;28;45605;-74
2022/02/18 10:04:20;;;;;;;;;0.00;0.00;;;;;13.74;83.06;100229.22;5059495;28;45502;-74
2022/02/18 10:06:46;;;;;;;;;0.00;0.00;;;;;13.69;83.48;100239.22;5056174;28;47956;-74
2022/02/18 10:09:11;;;;;;;;;0.75;0.75;;;;;13.54;85.76;100224.34;5055711;27;45757;-73
2022/02/18 10:11:50;;;;;;;;;0.25;0.00;;;;;13.46;86.70;100218.69;5057158;28;45470;-74
2022/02/18 10:14:15;;;;;;;;;0.00;0.00;;;;;13.47;85.35;100236.25;5056808;28;45573;-74
2022/02/18 10:16:40;;;;;;;;;3.00;0.00;;;;;13.52;85.71;100223.56;5055587;28;45524;-74
2022/02/18 10:19:10;;;;;;;;;0.00;0.00;;;;;13.54;85.63;100208.50;5055835;28;45442;-74
2022/02/18 10:21:37;;;;;;;;;0.00;0.00;;;;;13.54;86.39;100205.88;5055742;28;45571;-74
2022/02/18 10:24:17;;;;;;;;;0.00;0.00;;;;;13.51;85.25;100206.88;5056430;28;45513;-74
2022/02/18 10:26:47;;;;;;;;;0.00;0.00;;;;;13.54;84.92;100190.03;5056019;28;45497;-74
2022/02/18 10:29:21;;;;;;;;;0.00;0.00;;;;;13.53;85.84;100201.53;5056650;28;45637;-74
2022/02/18 10:32:09;;;;;;;;;0.00;0.00;;;;;13.55;86.02;100203.13;5057510;28;45428;-75
2022/02/18 10:34:58;;;;;;;;;2.00;0.00;;;;;13.63;85.77;100194.72;5060405;28;45300;-74
2022/02/18 10:37:27;;;;;;;;;1.00;0.00;;;;;13.67;85.55;100195.34;5055300;28;47230;-74
2022/02/18 10:40:08;;;;;;;;;1.00;0.00;;;;;13.73;84.90;100195.81;5056061;28;45501;-75
2022/02/18 10:42:34;;;;;;;;;2.00;0.00;;;;;13.86;84.27;100208.22;5055753;28;45470;-74
2022/02/18 10:45:16;;;;;;;;;1.00;0.00;;;;;13.89;83.88;100189.56;5055690;28;45500;-75
2022/02/18 10:47:43;;;;;;;;;0.00;0.00;;;;;13.91;83.57;100198.22;5055056;28;45438;-75
2022/02/18 10:50:17;;;;;;;;;0.00;0.00;;;;;13.87;83.19;100199.34;5056184;28;45703;-75
2022/02/18 10:52:43;;;;;;;;;0.00;0.00;;;;;13.79;83.13;100181.38;5055396;28;45386;-75
2022/02/18 10:55:09;;;;;;;;;2.00;0.50;;;;;13.77;83.67;100167.41;5055861;28;45398;-75
2022/02/18 10:57:35;;;;;;;;;0.00;0.00;;;;;13.76;83.46;100169.19;5055015;28;46057;-75
2022/02/18 11:00:12;;;;;;;;;0.00;0.00;;;;;13.72;83.34;100169.50;5054917;28;46132;-75
2022/02/18 11:02:41;;;;;;;;;0.75;0.00;;;;;13.70;83.48;100174.88;5055560;28;45560;-75
2022/02/18 11:05:23;;;;;;;;;0.00;0.00;;;;;13.64;83.25;100155.97;5056269;28;45420;-75
2022/02/18 11:07:49;;;;;;;;;0.50;0.00;;;;;13.61;83.71;100167.56;5055380;28;46428;-75
2022/02/18 11:10:39;;;;;;;;;1.25;1.25;;;;;13.59;84.10;100150.97;5055170;28;45494;-75
2022/02/18 11:13:05;;;;;;;;;0.00;0.00;;;;;13.57;83.59;100155.50;5055114;28;45425;-75
2022/02/18 11:15:34;;;;;;;;;0.00;0.00;;;;;13.57;84.04;100161.66;5053884;28;45444;-76
2022/02/18 11:17:59;;;;;;;;;1.00;1.00;;;;;13.57;83.79;100159.00;5052725;28;46284;-75
2022/02/18 11:20:26;;;;;;;;;1.00;1.00;;;;;13.57;84.09;100168.69;5054393;28;45334;-75